createdAt,value
2022-08-29T00:01:55.764Z,17.20
2022-08-29T00:07:16.930Z,17.14
2022-08-29T00:12:38.479Z,17.03
2022-08-29T00:17:59.809Z,17.10
2022-08-29T00:23:20.954Z,17.03
2022-08-29T00:28:41.867Z,16.98
2022-08-29T00:34:03.312Z,16.94
2022-08-29T00:39:24.297Z,16.91
2022-08-29T00:44:46.232Z,16.81
2022-08-29T00:50:10.056Z,16.80
2022-08-29T00:55:34.489Z,16.81
2022-08-29T01:00:55.634Z,16.75
2022-08-29T01:06:16.560Z,16.73
2022-08-29T01:11:56.543Z,16.70
2022-08-29T01:17:34.198Z,16.74
2022-08-29T01:23:21.269Z,16.68
2022-08-29T01:28:47.580Z,16.69
2022-08-29T01:34:11.101Z,16.52
2022-08-29T01:39:35.581Z,16.67
2022-08-29T01:44:58.925Z,16.71
2022-08-29T01:50:20.490Z,16.67
2022-08-29T01:55:42.477Z,16.61
2022-08-29T02:01:03.060Z,16.59
2022-08-29T02:06:23.772Z,16.64
2022-08-29T02:11:46.498Z,16.64
2022-08-29T02:17:08.576Z,16.61
2022-08-29T02:22:29.372Z,16.60
2022-08-29T02:27:53.235Z,16.54
2022-08-29T02:33:14.028Z,16.58
2022-08-29T02:38:35.885Z,16.58
2022-08-29T02:43:56.927Z,16.58
2022-08-29T02:49:17.637Z,16.41
2022-08-29T02:54:39.045Z,16.29
2022-08-29T03:00:00.447Z,16.21
2022-08-29T03:05:24.925Z,16.27
2022-08-29T03:10:45.805Z,16.19
2022-08-29T03:16:07.004Z,16.17
2022-08-29T03:21:28.352Z,16.05
2022-08-29T03:26:56.537Z,16.06
2022-08-29T03:32:18.021Z,16.13
2022-08-29T03:37:38.755Z,16.16
2022-08-29T03:42:59.472Z,16.13
2022-08-29T03:48:20.267Z,16.07
2022-08-29T03:53:41.453Z,16.05
2022-08-29T03:59:02.500Z,16.01
2022-08-29T04:04:44.124Z,15.98
2022-08-29T04:10:07.189Z,16.06
2022-08-29T04:15:29.652Z,16.14
2022-08-29T04:20:50.864Z,16.11
2022-08-29T04:26:35.937Z,16.14
2022-08-29T04:31:57.535Z,16.07
2022-08-29T04:37:18.079Z,16.00
2022-08-29T04:42:39.311Z,16.04
2022-08-29T04:48:03.528Z,16.12
2022-08-29T04:53:25.759Z,16.22
2022-08-29T04:58:47.423Z,16.34
2022-08-29T05:04:12.521Z,16.45
2022-08-29T05:09:35.239Z,16.44
2022-08-29T05:14:56.691Z,16.37
2022-08-29T05:20:17.954Z,16.45
2022-08-29T05:25:39.399Z,16.67
2022-08-29T05:31:01.266Z,16.76
2022-08-29T05:36:22.520Z,16.82
2022-08-29T05:41:43.821Z,16.80
2022-08-29T05:47:07.519Z,16.80
2022-08-29T05:52:29.441Z,16.80
2022-08-29T05:57:53.504Z,16.98
2022-08-29T06:03:15.003Z,17.08
2022-08-29T06:08:35.942Z,17.28
2022-08-29T06:13:56.900Z,17.45
2022-08-29T06:19:17.985Z,17.62
2022-08-29T06:24:39.829Z,17.95
2022-08-29T06:30:02.022Z,18.25
2022-08-29T06:35:23.227Z,18.47
2022-08-29T06:40:43.922Z,18.50
2022-08-29T06:46:05.428Z,18.62
2022-08-29T06:51:28.117Z,18.73
2022-08-29T06:56:49.893Z,18.65
2022-08-29T07:02:10.742Z,18.85
2022-08-29T07:07:31.539Z,18.91
2022-08-29T07:12:56.976Z,19.18
2022-08-29T07:18:18.234Z,19.24
2022-08-29T07:23:39.554Z,19.30
2022-08-29T07:29:03.599Z,19.33
2022-08-29T07:34:24.752Z,19.28
2022-08-29T07:39:45.660Z,19.28
2022-08-29T07:45:09.501Z,19.34
2022-08-29T07:50:30.356Z,19.21
2022-08-29T07:55:50.952Z,19.37
2022-08-29T08:01:21.199Z,19.45
2022-08-29T08:06:43.355Z,19.59
2022-08-29T08:12:08.384Z,19.71
2022-08-29T08:17:29.551Z,19.51
2022-08-29T08:22:50.235Z,19.62
2022-08-29T08:28:13.815Z,19.61
2022-08-29T08:33:38.840Z,19.58
2022-08-29T08:39:00.069Z,19.70
2022-08-29T08:44:27.152Z,19.91
2022-08-29T08:50:00.448Z,20.05
2022-08-29T08:55:47.658Z,20.13
2022-08-29T09:01:45.612Z,20.17
2022-08-29T09:07:44.910Z,20.25
2022-08-29T09:13:30.343Z,20.27
2022-08-29T09:18:54.123Z,20.47
2022-08-29T09:24:38.946Z,20.60
2022-08-29T09:30:03.206Z,20.66
2022-08-29T09:35:29.389Z,20.71
2022-08-29T09:40:55.653Z,20.65
2022-08-29T09:46:26.552Z,20.78
2022-08-29T09:51:49.162Z,20.77
2022-08-29T09:57:19.197Z,20.83
2022-08-29T10:02:52.370Z,20.79
2022-08-29T10:08:36.823Z,21.01
2022-08-29T10:14:26.372Z,20.95
2022-08-29T10:19:47.619Z,20.86
2022-08-29T10:25:37.461Z,20.79
2022-08-29T10:31:23.248Z,20.89
2022-08-29T10:36:50.691Z,21.00
2022-08-29T10:42:16.327Z,21.02
2022-08-29T10:47:43.215Z,21.16
2022-08-29T10:53:16.693Z,21.17
2022-08-29T10:59:03.252Z,21.16
2022-08-29T11:04:38.167Z,21.25
2022-08-29T11:10:23.477Z,21.27
2022-08-29T11:15:52.819Z,21.26
2022-08-29T11:21:48.796Z,21.23
2022-08-29T11:27:28.984Z,21.32
2022-08-29T11:33:02.908Z,21.48
2022-08-29T11:39:00.233Z,21.68
2022-08-29T11:44:30.322Z,21.65
2022-08-29T11:49:52.106Z,21.58
2022-08-29T11:55:34.276Z,21.64
2022-08-29T12:00:56.851Z,21.70
2022-08-29T12:06:28.917Z,21.90
2022-08-29T12:11:58.882Z,21.92
2022-08-29T12:17:19.652Z,21.97
2022-08-29T12:23:01.499Z,22.08
2022-08-29T12:28:23.668Z,22.10
2022-08-29T12:34:23.524Z,22.01
2022-08-29T12:40:19.179Z,22.05
2022-08-29T12:45:43.635Z,22.14
2022-08-29T12:51:05.184Z,22.03
2022-08-29T12:56:26.296Z,22.08
2022-08-29T13:01:49.985Z,22.16
2022-08-29T13:07:18.273Z,22.17
2022-08-29T13:12:39.113Z,22.11
2022-08-29T13:18:01.756Z,22.19
2022-08-29T13:23:29.681Z,22.19
2022-08-29T13:28:53.284Z,22.29
2022-08-29T13:34:18.050Z,22.37
2022-08-29T13:39:43.824Z,22.36
2022-08-29T13:45:09.328Z,22.34
2022-08-29T13:50:31.340Z,22.42
2022-08-29T13:55:51.913Z,22.57
2022-08-29T14:06:58.270Z,22.50
2022-08-29T14:12:19.781Z,22.56
2022-08-29T14:17:42.214Z,22.55
2022-08-29T14:23:03.481Z,22.55
2022-08-29T14:28:24.330Z,22.56
2022-08-29T14:33:45.168Z,22.61
2022-08-29T14:39:13.188Z,22.68
2022-08-29T14:44:34.674Z,22.68
2022-08-29T14:49:55.875Z,22.64
2022-08-29T14:55:17.931Z,22.64
2022-08-29T15:00:39.088Z,22.61
2022-08-29T15:06:00.121Z,22.55
2022-08-29T15:11:20.958Z,22.45
2022-08-29T15:16:41.992Z,22.39
2022-08-29T15:22:03.292Z,22.30
2022-08-29T15:27:27.619Z,22.29
2022-08-29T15:32:49.430Z,22.26
2022-08-29T15:38:10.341Z,22.26
2022-08-29T15:43:31.077Z,22.28
2022-08-29T15:48:52.724Z,22.25
2022-08-29T15:54:14.886Z,22.20
2022-08-29T15:59:56.983Z,22.27
2022-08-29T16:05:16.330Z,22.12
2022-08-29T16:10:37.634Z,22.02
2022-08-29T16:15:58.749Z,21.92
2022-08-29T16:21:20.881Z,21.88
2022-08-29T16:26:45.597Z,21.90
2022-08-29T16:32:08.031Z,21.98
2022-08-29T16:37:29.433Z,21.97
2022-08-29T16:42:55.247Z,21.89
2022-08-29T16:48:17.927Z,21.94
2022-08-29T16:53:39.477Z,21.98
2022-08-29T16:59:00.461Z,21.97
2022-08-29T17:04:24.827Z,22.00
2022-08-29T17:09:45.955Z,21.76
2022-08-29T17:15:07.162Z,21.61
2022-08-29T17:20:28.157Z,21.47
2022-08-29T17:25:48.752Z,21.44
2022-08-29T17:31:09.729Z,21.34
2022-08-29T17:36:31.435Z,21.29
2022-08-29T17:41:52.632Z,21.34
2022-08-29T17:47:13.717Z,21.21
2022-08-29T17:52:34.566Z,21.04
2022-08-29T17:57:55.528Z,20.95
2022-08-29T18:03:17.070Z,20.87
2022-08-29T18:08:39.074Z,20.75
2022-08-29T18:14:01.207Z,20.72
2022-08-29T18:19:22.909Z,20.50
2022-08-29T18:24:43.645Z,20.38
2022-08-29T18:30:07.025Z,20.34
2022-08-29T18:35:29.705Z,20.33
2022-08-29T18:40:51.191Z,20.30
2022-08-29T18:46:15.737Z,20.16
2022-08-29T18:51:37.175Z,20.00
2022-08-29T18:56:58.379Z,19.87
2022-08-29T19:02:19.591Z,19.76
2022-08-29T19:07:40.883Z,19.62
2022-08-29T19:13:01.596Z,19.48
2022-08-29T19:18:22.435Z,19.31
2022-08-29T19:23:46.226Z,19.32
2022-08-29T19:29:15.717Z,19.23
2022-08-29T19:34:36.796Z,19.07
2022-08-29T19:39:57.676Z,19.01
2022-08-29T19:45:19.648Z,18.95
2022-08-29T19:50:41.530Z,18.89
2022-08-29T19:56:03.757Z,18.89
2022-08-29T20:01:26.591Z,18.97
2022-08-29T20:06:48.097Z,18.93
2022-08-29T20:12:09.031Z,18.88
2022-08-29T20:17:31.387Z,18.73
2022-08-29T20:23:00.034Z,18.65
2022-08-29T20:28:20.721Z,18.51
2022-08-29T20:33:43.774Z,18.33
2022-08-29T20:39:06.182Z,18.36
2022-08-29T20:44:34.022Z,18.27
2022-08-29T20:49:56.646Z,18.15
2022-08-29T20:55:18.702Z,18.07
2022-08-29T21:00:39.860Z,18.00
2022-08-29T21:06:03.951Z,17.99
2022-08-29T21:11:25.566Z,18.06
2022-08-29T21:16:46.353Z,18.03
2022-08-29T21:22:09.749Z,17.86
2022-08-29T21:27:30.846Z,17.70
2022-08-29T21:32:51.491Z,17.63
2022-08-29T21:38:12.598Z,17.56
2022-08-29T21:43:33.305Z,17.44
2022-08-29T21:48:56.697Z,17.60
2022-08-29T21:54:18.449Z,17.64
2022-08-29T21:59:39.657Z,17.68
2022-08-29T22:05:00.568Z,17.70
2022-08-29T22:10:25.698Z,17.75
2022-08-29T22:16:05.254Z,17.71
2022-08-29T22:21:27.474Z,17.70
2022-08-29T22:26:48.422Z,17.55
2022-08-29T22:32:09.473Z,17.43
2022-08-29T22:37:31.899Z,17.44
2022-08-29T22:42:52.459Z,17.45
2022-08-29T22:48:16.386Z,17.36
2022-08-29T22:53:37.414Z,17.26
2022-08-29T22:59:00.033Z,17.27
2022-08-29T23:04:21.227Z,17.18
2022-08-29T23:09:43.189Z,17.21
2022-08-29T23:15:07.509Z,17.20
2022-08-29T23:20:29.598Z,17.22
2022-08-29T23:25:50.399Z,17.14
2022-08-29T23:31:11.185Z,17.12
2022-08-29T23:36:32.179Z,17.18
2022-08-29T23:41:53.738Z,17.18
2022-08-29T23:47:14.376Z,17.21
2022-08-29T23:52:35.054Z,17.13
2022-08-29T23:57:55.639Z,17.14
